createdAt,value
2019-01-13T00:03:05.959Z,99921.85
2019-01-13T00:08:09.242Z,99928.88
2019-01-13T00:13:12.259Z,99922.95
2019-01-13T00:18:15.152Z,99922.70
2019-01-13T00:23:18.281Z,99908.97
2019-01-13T00:28:21.161Z,99910.71
2019-01-13T00:33:24.260Z,99913.66
2019-01-13T00:38:27.404Z,99907.98
2019-01-13T00:43:30.299Z,99897.52
2019-01-13T00:48:32.379Z,99892.37
2019-01-13T00:53:34.649Z,99889.00
2019-01-13T00:58:37.145Z,99881.15
2019-01-13T01:03:40.001Z,99878.31
2019-01-13T01:08:42.900Z,99880.89
2019-01-13T01:13:45.654Z,99875.95
2019-01-13T01:18:48.161Z,99872.80
2019-01-13T01:23:50.989Z,99871.52
2019-01-13T01:28:54.038Z,99874.43
2019-01-13T01:33:56.934Z,99875.64
2019-01-13T01:38:59.625Z,99864.43
2019-01-13T01:44:02.259Z,99869.42
2019-01-13T01:49:04.441Z,99854.92
2019-01-13T01:54:06.835Z,99849.00
2019-01-13T01:59:09.566Z,99858.49
2019-01-13T02:04:12.749Z,99866.20
2019-01-13T02:09:15.629Z,99879.45
2019-01-13T02:14:18.388Z,99880.70
2019-01-13T02:19:21.639Z,99871.34
2019-01-13T02:24:24.155Z,99860.13
2019-01-13T02:29:26.949Z,99853.67
2019-01-13T02:34:29.140Z,99840.57
2019-01-13T02:39:31.911Z,99844.80
2019-01-13T02:44:34.429Z,99849.78
2019-01-13T02:49:36.107Z,99839.37
2019-01-13T02:54:38.889Z,99845.69
2019-01-13T02:59:41.996Z,99836.55
2019-01-13T03:04:44.690Z,99839.95
2019-01-13T03:09:47.371Z,99833.78
2019-01-13T03:14:49.963Z,99832.44
2019-01-13T03:19:51.998Z,99826.13
2019-01-13T03:24:53.998Z,99817.24
2019-01-13T03:29:56.727Z,99810.42
2019-01-13T03:34:59.789Z,99804.30
2019-01-13T03:40:03.974Z,99814.95
2019-01-13T03:45:08.606Z,99801.31
2019-01-13T03:50:16.286Z,99798.84
2019-01-13T03:55:21.923Z,99796.87
2019-01-13T04:00:25.499Z,99790.94
2019-01-13T04:05:28.512Z,99774.63
2019-01-13T04:10:31.327Z,99758.97
2019-01-13T04:15:52.301Z,99762.81
2019-01-13T04:20:54.733Z,99738.77
2019-01-13T04:25:57.637Z,99745.53
2019-01-13T04:31:00.063Z,99732.04
2019-01-13T04:36:03.422Z,99726.20
2019-01-13T04:41:06.581Z,99721.97
2019-01-13T04:46:09.364Z,99714.92
2019-01-13T04:51:11.789Z,99715.66
2019-01-13T04:56:14.785Z,99713.67
2019-01-13T05:01:17.979Z,99697.52
2019-01-13T05:06:20.393Z,99685.91
2019-01-13T05:11:22.893Z,99680.22
2019-01-13T05:16:25.090Z,99672.70
2019-01-13T05:21:27.792Z,99664.94
2019-01-13T05:26:29.849Z,99663.63
2019-01-13T05:31:32.244Z,99653.73
2019-01-13T05:36:34.631Z,99636.86
2019-01-13T05:41:37.023Z,99628.04
2019-01-13T05:46:39.570Z,99621.60
2019-01-13T05:51:42.508Z,99617.33
2019-01-13T05:56:45.189Z,99596.70
2019-01-13T06:01:49.361Z,99569.27
2019-01-13T06:06:52.467Z,99553.30
2019-01-13T06:11:55.471Z,99542.22
2019-01-13T06:16:57.707Z,99525.81
2019-01-13T06:22:00.160Z,99533.28
2019-01-13T06:27:03.166Z,99521.15
2019-01-13T06:32:05.546Z,99529.00
2019-01-13T06:37:07.824Z,99512.98
2019-01-13T06:42:10.538Z,99511.17
2019-01-13T06:47:13.008Z,99491.63
2019-01-13T06:52:15.513Z,99494.39
2019-01-13T06:57:17.552Z,99483.03
2019-01-13T07:02:20.045Z,99479.27
2019-01-13T07:07:22.491Z,99466.25
2019-01-13T07:12:24.971Z,99459.40
2019-01-13T07:17:27.642Z,99440.77
2019-01-13T07:22:30.474Z,99435.30
2019-01-13T07:27:33.050Z,99419.33
2019-01-13T07:32:36.038Z,99407.13
2019-01-13T07:37:38.955Z,99393.44
2019-01-13T07:42:41.838Z,99377.81
2019-01-13T07:47:44.643Z,99358.63
2019-01-13T07:52:47.557Z,99356.20
2019-01-13T07:57:50.797Z,99341.75
2019-01-13T08:02:53.705Z,99338.54
2019-01-13T08:07:56.800Z,99324.51
2019-01-13T08:12:59.480Z,99299.42
2019-01-13T08:18:01.991Z,99288.95
2019-01-13T08:23:05.203Z,99272.52
2019-01-13T08:28:07.124Z,99261.20
2019-01-13T08:33:09.981Z,99255.18
2019-01-13T08:38:12.749Z,99241.22
2019-01-13T08:43:15.451Z,99226.89
2019-01-13T08:48:18.276Z,99225.41
2019-01-13T08:53:21.197Z,99201.46
2019-01-13T08:58:23.857Z,99208.22
2019-01-13T09:03:26.175Z,99184.70
2019-01-13T09:08:29.687Z,99193.63
2019-01-13T09:13:32.389Z,99169.65
2019-01-13T09:18:34.581Z,99155.48
2019-01-13T09:23:37.065Z,99136.28
2019-01-13T09:28:39.950Z,99136.02
2019-01-13T09:33:42.830Z,99133.91
2019-01-13T09:38:45.454Z,99126.70
2019-01-13T09:43:47.841Z,99121.08
2019-01-13T09:48:50.972Z,99113.30
2019-01-13T09:53:53.882Z,99096.25
2019-01-13T09:58:56.574Z,99098.42
2019-01-13T10:03:59.353Z,99088.22
2019-01-13T10:09:02.254Z,99074.79
2019-01-13T10:14:04.784Z,99072.59
2019-01-13T10:19:07.852Z,99064.03
2019-01-13T10:24:10.538Z,99060.77
2019-01-13T10:29:13.555Z,99048.78
2019-01-13T10:34:16.679Z,99031.95
2019-01-13T10:39:19.881Z,99035.30
2019-01-13T10:44:22.186Z,99034.78
2019-01-13T10:49:24.892Z,99008.33
2019-01-13T10:54:27.377Z,98994.73
2019-01-13T10:59:29.556Z,98982.17
2019-01-13T11:04:32.355Z,98978.07
2019-01-13T11:09:35.151Z,98966.98
2019-01-13T11:14:38.166Z,98963.28
2019-01-13T11:19:41.383Z,98948.41
2019-01-13T11:24:44.363Z,98943.78
2019-01-13T11:29:47.140Z,98931.20
2019-01-13T11:34:49.598Z,98924.41
2019-01-13T11:39:52.679Z,98918.05
2019-01-13T11:44:55.189Z,98906.36
2019-01-13T11:49:57.675Z,98900.30
2019-01-13T11:55:00.243Z,98901.45
2019-01-13T12:00:04.355Z,98890.85
2019-01-13T12:05:06.990Z,98868.59
2019-01-13T12:10:11.250Z,98866.16
2019-01-13T12:15:14.958Z,98855.73
2019-01-13T12:20:19.894Z,98837.75
2019-01-13T12:25:22.656Z,98824.25
2019-01-13T12:30:27.221Z,98837.08
2019-01-13T12:35:30.888Z,98808.78
2019-01-13T12:40:33.560Z,98801.53
2019-01-13T12:45:36.456Z,98790.92
2019-01-13T12:50:39.260Z,98772.05
2019-01-13T12:55:43.426Z,98766.63
2019-01-13T13:00:45.986Z,98759.11
2019-01-13T13:05:48.916Z,98739.88
2019-01-13T13:10:54.492Z,98730.75
2019-01-13T13:15:56.946Z,98711.56
2019-01-13T13:21:00.160Z,98697.26
2019-01-13T13:26:02.888Z,98676.03
2019-01-13T13:31:05.444Z,98669.13
2019-01-13T13:36:09.610Z,98646.91
2019-01-13T13:41:12.156Z,98623.59
2019-01-13T13:46:14.774Z,98634.03
2019-01-13T13:51:17.508Z,98603.80
2019-01-13T13:56:20.380Z,98600.02
2019-01-13T14:01:23.604Z,98583.13
2019-01-13T14:06:26.510Z,98567.21
2019-01-13T14:11:29.156Z,98559.28
2019-01-13T14:16:31.886Z,98561.80
2019-01-13T14:21:35.073Z,98551.81
2019-01-13T14:26:37.814Z,98549.64
2019-01-13T14:31:40.646Z,98532.89
2019-01-13T14:36:43.411Z,98527.39
2019-01-13T14:41:46.289Z,98532.37
2019-01-13T14:46:48.787Z,98549.38
2019-01-13T14:51:51.690Z,98532.91
2019-01-13T14:56:54.476Z,98505.50
2019-01-13T15:01:57.119Z,98507.53
2019-01-13T15:06:59.988Z,98514.27
2019-01-13T15:12:02.922Z,98479.39
2019-01-13T15:17:05.933Z,98478.27
2019-01-13T15:22:09.124Z,98471.23
2019-01-13T15:27:12.339Z,98481.11
2019-01-13T15:32:15.225Z,98488.69
2019-01-13T15:37:18.387Z,98468.63
2019-01-13T15:42:21.435Z,98463.47
2019-01-13T15:47:24.445Z,98475.58
2019-01-13T15:52:27.309Z,98463.13
2019-01-13T15:57:30.541Z,98477.66
2019-01-13T16:02:33.146Z,98460.28
2019-01-13T16:07:36.027Z,98471.66
2019-01-13T16:12:39.367Z,98465.39
2019-01-13T16:17:42.182Z,98468.59
2019-01-13T16:22:45.421Z,98464.36
2019-01-13T16:27:48.282Z,98450.23
2019-01-13T16:32:51.346Z,98453.17
2019-01-13T16:37:53.986Z,98452.36
2019-01-13T16:42:57.318Z,98463.16
2019-01-13T16:48:01.214Z,98435.20
2019-01-13T16:53:06.240Z,98428.85
2019-01-13T16:58:09.555Z,98439.93
2019-01-13T17:03:15.245Z,98446.68
2019-01-13T17:08:18.314Z,98445.14
2019-01-13T17:13:21.696Z,98451.72
2019-01-13T17:18:24.744Z,98462.72
2019-01-13T17:23:28.051Z,98451.41
2019-01-13T17:28:31.834Z,98468.18
2019-01-13T17:33:35.074Z,98429.18
2019-01-13T17:38:38.921Z,98451.34
2019-01-13T17:43:43.625Z,98448.36
2019-01-13T17:48:46.475Z,98442.97
2019-01-13T17:53:52.493Z,98449.61
2019-01-13T17:58:56.974Z,98454.31
2019-01-13T18:04:03.076Z,98446.01
2019-01-13T18:09:10.109Z,98444.20
2019-01-13T18:14:14.792Z,98451.17
2019-01-13T18:19:20.469Z,98464.14
2019-01-13T18:24:26.436Z,98459.17
2019-01-13T18:29:33.406Z,98454.56
2019-01-13T18:34:39.752Z,98459.15
2019-01-13T18:39:46.386Z,98450.03
2019-01-13T18:44:51.545Z,98467.97
2019-01-13T18:49:57.846Z,98470.17
2019-01-13T18:55:04.869Z,98468.46
2019-01-13T19:00:11.802Z,98453.77
2019-01-13T19:05:17.525Z,98455.33
2019-01-13T19:10:33.882Z,98488.36
2019-01-13T19:15:39.683Z,98508.43
2019-01-13T19:20:44.407Z,98481.53
2019-01-13T19:25:51.613Z,98506.22
2019-01-13T19:30:58.247Z,98499.94
2019-01-13T19:36:03.900Z,98519.64
2019-01-13T19:41:10.884Z,98520.29
2019-01-13T19:46:18.861Z,98535.69
2019-01-13T19:51:25.621Z,98543.68
2019-01-13T19:56:32.205Z,98565.27
2019-01-13T20:01:40.052Z,98574.14
2019-01-13T20:06:46.690Z,98592.52
2019-01-13T20:11:53.591Z,98603.44
2019-01-13T20:17:00.550Z,98599.45
2019-01-13T20:22:07.058Z,98629.97
2019-01-13T20:27:13.610Z,98653.39
2019-01-13T20:32:20.740Z,98660.20
2019-01-13T20:37:28.383Z,98651.23
2019-01-13T20:42:34.777Z,98659.55
2019-01-13T20:47:41.729Z,98660.89
2019-01-13T20:52:48.590Z,98667.81
2019-01-13T20:57:53.628Z,98669.06
2019-01-13T21:02:59.125Z,98698.69
2019-01-13T21:08:05.253Z,98682.13
2019-01-13T21:13:09.860Z,98696.97
2019-01-13T21:18:14.166Z,98711.69
2019-01-13T21:23:17.583Z,98711.59
2019-01-13T21:28:21.084Z,98732.12
2019-01-13T21:33:24.322Z,98750.85
2019-01-13T21:38:26.961Z,98758.64
2019-01-13T21:43:30.361Z,98763.17
2019-01-13T21:48:32.809Z,98779.14
2019-01-13T21:53:35.995Z,98791.04
2019-01-13T21:58:38.561Z,98807.54
2019-01-13T22:03:42.389Z,98824.89
2019-01-13T22:08:45.405Z,98828.70
2019-01-13T22:13:48.596Z,98844.61
2019-01-13T22:18:51.350Z,98858.49
2019-01-13T22:23:56.272Z,98872.98
2019-01-13T22:28:59.655Z,98865.13
2019-01-13T22:34:02.422Z,98895.17
2019-01-13T22:39:07.802Z,98885.34
2019-01-13T22:44:10.414Z,98891.87
2019-01-13T22:49:13.146Z,98917.13
2019-01-13T22:54:16.218Z,98936.09
2019-01-13T22:59:18.712Z,98930.42
2019-01-13T23:04:21.206Z,98961.81
2019-01-13T23:09:23.704Z,98959.78
2019-01-13T23:14:27.263Z,98981.79
2019-01-13T23:19:29.926Z,98985.23
2019-01-13T23:24:32.657Z,98990.88
2019-01-13T23:29:35.197Z,99010.69
2019-01-13T23:34:38.275Z,99023.25
2019-01-13T23:39:41.215Z,99044.98
2019-01-13T23:44:43.594Z,99061.03
2019-01-13T23:49:45.898Z,99070.86
2019-01-13T23:54:48.533Z,99084.05
2019-01-13T23:59:51.180Z,99094.26
